createdAt,value
2022-10-05T00:01:34.386Z,101359.88
2022-10-05T00:04:24.347Z,101363.53
2022-10-05T00:07:05.299Z,101355.78
2022-10-05T00:09:33.943Z,101357.75
2022-10-05T00:12:22.485Z,101368.66
2022-10-05T00:14:57.863Z,101376.41
2022-10-05T00:17:30.438Z,101375.88
2022-10-05T00:19:57.446Z,101374.25
2022-10-05T00:22:34.110Z,101374.25
2022-10-05T00:25:14.582Z,101359.59
2022-10-05T00:27:42.494Z,101353.75
2022-10-05T00:30:18.967Z,101348.03
2022-10-05T00:32:47.921Z,101363.56
2022-10-05T00:35:18.866Z,101374.09
2022-10-05T00:37:53.365Z,101372.81
2022-10-05T00:41:01.058Z,101365.91
2022-10-05T00:43:55.047Z,101363.97
2022-10-05T00:46:48.715Z,101367.91
2022-10-05T00:49:50.971Z,101362.66
2022-10-05T00:53:16.508Z,101371.00
2022-10-05T00:56:04.738Z,101359.41
2022-10-05T00:59:03.967Z,101350.00
2022-10-05T01:02:37.712Z,101343.59
2022-10-05T01:05:44.273Z,101350.25
2022-10-05T01:08:57.069Z,101342.22
2022-10-05T01:11:51.041Z,101341.97
2022-10-05T01:15:07.259Z,101331.19
2022-10-05T01:18:23.662Z,101340.31
2022-10-05T01:21:21.559Z,101336.69
2022-10-05T01:24:12.494Z,101338.59
2022-10-05T01:27:14.802Z,101331.97
2022-10-05T01:30:12.390Z,101322.75
2022-10-05T01:33:04.422Z,101308.06
2022-10-05T01:35:56.350Z,101306.94
2022-10-05T01:39:00.687Z,101312.81
2022-10-05T01:41:59.292Z,101326.66
2022-10-05T01:44:57.094Z,101315.88
2022-10-05T01:47:45.710Z,101329.75
2022-10-05T01:50:36.151Z,101321.47
2022-10-05T01:53:49.596Z,101312.13
2022-10-05T01:57:08.591Z,101314.91
2022-10-05T02:00:14.430Z,101307.75
2022-10-05T02:03:28.271Z,101319.69
2022-10-05T02:06:11.512Z,101323.59
2022-10-05T02:09:08.797Z,101326.94
2022-10-05T02:11:45.217Z,101325.84
2022-10-05T02:14:24.529Z,101330.63
2022-10-05T02:17:01.959Z,101329.53
2022-10-05T02:19:46.173Z,101338.41
2022-10-05T02:22:41.157Z,101333.19
2022-10-05T02:25:21.382Z,101330.41
2022-10-05T02:28:04.291Z,101332.34
2022-10-05T02:30:44.099Z,101334.63
2022-10-05T02:33:32.749Z,101334.06
2022-10-05T02:36:23.822Z,101328.56
2022-10-05T02:39:17.690Z,101325.53
2022-10-05T02:42:35.141Z,101317.56
2022-10-05T02:45:30.170Z,101324.47
2022-10-05T02:48:42.100Z,101330.81
2022-10-05T02:51:48.780Z,101327.59
2022-10-05T02:54:53.481Z,101328.47
2022-10-05T02:57:47.158Z,101331.50
2022-10-05T03:00:22.864Z,101329.88
2022-10-05T03:03:14.391Z,101330.16
2022-10-05T03:06:05.403Z,101318.84
2022-10-05T03:08:53.015Z,101318.53
2022-10-05T03:11:44.522Z,101315.75
2022-10-05T03:14:28.494Z,101317.13
2022-10-05T03:17:15.819Z,101310.78
2022-10-05T03:20:42.787Z,101303.84
2022-10-05T03:24:05.448Z,101318.50
2022-10-05T03:27:00.962Z,101314.34
2022-10-05T03:29:59.614Z,101307.47
2022-10-05T03:33:22.602Z,101294.75
2022-10-05T03:36:10.250Z,101295.81
2022-10-05T03:39:22.032Z,101294.09
2022-10-05T03:42:46.553Z,101292.41
2022-10-05T03:45:33.030Z,101290.16
2022-10-05T03:48:32.795Z,101287.06
2022-10-05T03:51:24.138Z,101280.38
2022-10-05T03:54:17.325Z,101279.75
2022-10-05T03:57:07.432Z,101268.06
2022-10-05T03:59:56.382Z,101267.47
2022-10-05T04:03:12.463Z,101259.97
2022-10-05T04:06:13.451Z,101267.94
2022-10-05T04:09:13.997Z,101267.66
2022-10-05T04:12:10.477Z,101260.66
2022-10-05T04:14:49.432Z,101262.84
2022-10-05T04:17:38.238Z,101259.25
2022-10-05T04:20:30.120Z,101270.31
2022-10-05T04:23:48.035Z,101263.59
2022-10-05T04:26:35.961Z,101261.19
2022-10-05T04:29:44.421Z,101265.91
2022-10-05T04:32:50.299Z,101265.44
2022-10-05T04:35:40.807Z,101270.13
2022-10-05T04:39:05.207Z,101272.06
2022-10-05T04:42:25.733Z,101272.25
2022-10-05T04:45:38.271Z,101261.06
2022-10-05T04:48:48.417Z,101251.97
2022-10-05T04:52:01.369Z,101258.81
2022-10-05T04:55:14.383Z,101261.50
2022-10-05T04:58:37.757Z,101258.75
2022-10-05T05:02:11.356Z,101270.41
2022-10-05T05:06:15.277Z,101274.59
2022-10-05T05:09:37.075Z,101262.41
2022-10-05T05:12:27.537Z,101270.41
2022-10-05T05:15:17.518Z,101268.09
2022-10-05T05:18:39.855Z,101252.88
2022-10-05T05:22:09.634Z,101252.28
2022-10-05T05:25:34.652Z,101255.13
2022-10-05T05:29:09.034Z,101261.75
2022-10-05T05:32:05.113Z,101270.81
2022-10-05T05:35:34.131Z,101271.34
2022-10-05T05:38:37.028Z,101255.56
2022-10-05T05:41:54.799Z,101253.78
2022-10-05T05:44:38.577Z,101249.81
2022-10-05T05:47:39.953Z,101250.63
2022-10-05T05:50:41.891Z,101238.16
2022-10-05T05:53:27.266Z,101238.22
2022-10-05T05:56:37.118Z,101236.50
2022-10-05T05:59:25.010Z,101235.53
2022-10-05T06:02:09.775Z,101233.28
2022-10-05T06:05:06.829Z,101244.00
2022-10-05T06:07:38.773Z,101247.00
2022-10-05T06:10:24.893Z,101245.41
2022-10-05T06:13:01.682Z,101242.78
2022-10-05T06:16:10.260Z,101253.34
2022-10-05T06:18:48.425Z,101258.59
2022-10-05T06:21:32.967Z,101260.16
2022-10-05T06:24:20.287Z,101263.34
2022-10-05T06:27:26.236Z,101259.16
2022-10-05T06:30:17.043Z,101262.06
2022-10-05T06:33:38.760Z,101251.50
2022-10-05T06:36:45.459Z,101260.44
2022-10-05T06:39:21.381Z,101263.00
2022-10-05T06:42:29.307Z,101261.75
2022-10-05T06:45:43.604Z,101261.78
2022-10-05T06:48:44.211Z,101265.59
2022-10-05T06:51:52.850Z,101266.59
2022-10-05T06:54:56.414Z,101274.28
2022-10-05T06:58:24.147Z,101280.88
2022-10-05T07:01:11.082Z,101282.94
2022-10-05T07:04:09.666Z,101281.28
2022-10-05T07:07:40.055Z,101280.53
2022-10-05T07:10:42.501Z,101276.53
2022-10-05T07:14:03.296Z,101279.53
2022-10-05T07:17:26.550Z,101267.84
2022-10-05T07:20:48.929Z,101278.22
2022-10-05T07:23:59.063Z,101278.09
2022-10-05T07:26:55.068Z,101272.66
2022-10-05T07:29:52.268Z,101275.41
2022-10-05T07:33:05.711Z,101273.75
2022-10-05T07:36:21.626Z,101267.44
2022-10-05T07:40:00.535Z,101260.81
2022-10-05T07:43:40.283Z,101271.00
2022-10-05T07:46:54.662Z,101273.38
2022-10-05T07:49:59.692Z,101275.25
2022-10-05T07:52:49.371Z,101274.06
2022-10-05T07:55:37.185Z,101280.59
2022-10-05T07:59:01.808Z,101281.09
2022-10-05T08:01:38.399Z,101279.16
2022-10-05T08:04:27.137Z,101267.38
2022-10-05T08:07:12.640Z,101276.19
2022-10-05T08:09:51.941Z,101284.72
2022-10-05T08:13:01.501Z,101282.28
2022-10-05T08:15:44.819Z,101283.41
2022-10-05T08:18:46.106Z,101274.09
2022-10-05T08:21:23.708Z,101263.75
2022-10-05T08:24:15.625Z,101258.94
2022-10-05T08:27:05.608Z,101246.00
2022-10-05T08:29:59.579Z,101248.28
2022-10-05T08:32:55.404Z,101256.28
2022-10-05T08:35:47.049Z,101249.88
2022-10-05T08:38:30.421Z,101244.16
2022-10-05T08:41:31.168Z,101234.44
2022-10-05T08:45:19.082Z,101219.69
2022-10-05T08:48:11.447Z,101212.56
2022-10-05T08:51:46.451Z,101212.41
2022-10-05T08:55:21.960Z,101208.81
2022-10-05T08:58:50.118Z,101208.19
2022-10-05T09:02:08.807Z,101219.06
2022-10-05T09:05:15.177Z,101220.75
2022-10-05T09:08:36.518Z,101196.66
2022-10-05T09:11:35.542Z,101206.34
2022-10-05T09:14:43.139Z,101197.63
2022-10-05T09:17:50.091Z,101202.91
2022-10-05T09:20:55.270Z,101204.56
2022-10-05T09:23:44.974Z,101195.09
2022-10-05T09:27:00.572Z,101205.03
2022-10-05T09:30:41.998Z,101199.59
2022-10-05T09:34:01.091Z,101198.69
2022-10-05T09:37:19.851Z,101195.47
2022-10-05T09:40:57.742Z,101192.84
2022-10-05T09:43:54.507Z,101191.25
2022-10-05T09:46:58.879Z,101181.94
2022-10-05T09:50:20.815Z,101185.19
2022-10-05T09:53:42.697Z,101185.81
2022-10-05T09:56:35.254Z,101180.88
2022-10-05T09:59:51.970Z,101174.28
2022-10-05T10:03:15.207Z,101174.66
2022-10-05T10:06:02.712Z,101174.94
2022-10-05T10:09:04.374Z,101169.34
2022-10-05T10:12:28.825Z,101160.91
2022-10-05T10:15:54.766Z,101159.25
2022-10-05T10:19:01.240Z,101162.53
2022-10-05T10:21:59.835Z,101168.75
2022-10-05T10:24:58.387Z,101166.25
2022-10-05T10:28:07.237Z,101159.66
2022-10-05T10:31:16.568Z,101157.19
2022-10-05T10:34:28.791Z,101144.91
2022-10-05T10:37:39.448Z,101161.69
2022-10-05T10:40:42.460Z,101144.09
2022-10-05T10:44:02.629Z,101154.44
2022-10-05T10:47:18.738Z,101154.25
2022-10-05T10:50:25.862Z,101173.44
2022-10-05T10:53:29.855Z,101172.06
2022-10-05T10:56:44.793Z,101170.28
2022-10-05T11:00:15.672Z,101174.00
2022-10-05T11:03:30.936Z,101163.50
2022-10-05T11:07:10.448Z,101170.88
2022-10-05T11:10:20.937Z,101159.19
2022-10-05T11:13:24.978Z,101150.38
2022-10-05T11:16:21.411Z,101143.94
2022-10-05T11:19:59.584Z,101155.53
2022-10-05T11:23:03.337Z,101143.69
2022-10-05T11:25:44.364Z,101135.97
2022-10-05T11:28:52.665Z,101141.53
2022-10-05T11:32:25.949Z,101127.16
2022-10-05T11:35:29.309Z,101134.69
2022-10-05T11:38:58.284Z,101125.25
2022-10-05T11:42:14.278Z,101123.41
2022-10-05T11:45:15.771Z,101115.09
2022-10-05T11:48:44.909Z,101111.41
2022-10-05T11:51:51.704Z,101103.91
2022-10-05T11:55:15.911Z,101096.22
2022-10-05T11:57:54.837Z,101103.16
2022-10-05T12:01:03.752Z,101102.75
2022-10-05T12:04:47.681Z,101098.56
2022-10-05T12:08:11.220Z,101092.97
2022-10-05T12:11:11.321Z,101095.97
2022-10-05T12:14:15.630Z,101092.22
2022-10-05T12:17:47.552Z,101088.72
2022-10-05T12:20:46.515Z,101093.69
2022-10-05T12:23:45.295Z,101091.78
2022-10-05T12:26:23.241Z,101090.78
2022-10-05T12:29:19.126Z,101091.00
2022-10-05T12:32:17.498Z,101078.81
2022-10-05T12:35:36.200Z,101081.97
2022-10-05T12:38:34.167Z,101070.88
2022-10-05T12:41:45.447Z,101072.91
2022-10-05T12:44:45.240Z,101063.56
2022-10-05T12:47:24.478Z,101065.94
2022-10-05T12:50:18.505Z,101063.44
2022-10-05T12:53:32.881Z,101050.81
2022-10-05T12:56:38.951Z,101056.28
2022-10-05T12:59:35.737Z,101056.03
2022-10-05T13:02:27.270Z,101051.84
2022-10-05T13:05:09.188Z,101056.59
2022-10-05T13:08:36.075Z,101050.81
2022-10-05T13:11:39.311Z,101061.38
2022-10-05T13:14:55.446Z,101072.09
2022-10-05T13:17:55.922Z,101062.50
2022-10-05T13:20:44.561Z,101068.66
2022-10-05T13:23:52.676Z,101067.59
2022-10-05T13:26:42.177Z,101058.00
2022-10-05T13:29:58.491Z,101056.38
2022-10-05T13:32:45.404Z,101059.56
2022-10-05T13:35:44.876Z,101056.72
2022-10-05T13:38:38.806Z,101062.06
2022-10-05T13:41:47.126Z,101053.44
2022-10-05T13:45:00.413Z,101051.78
2022-10-05T13:48:14.986Z,101044.88
2022-10-05T13:51:11.181Z,101045.09
2022-10-05T13:54:10.659Z,101052.16
2022-10-05T13:56:48.810Z,101049.25
2022-10-05T13:59:41.994Z,101045.88
2022-10-05T14:02:27.717Z,101049.00
2022-10-05T14:05:28.324Z,101054.53
2022-10-05T14:08:17.847Z,101045.00
2022-10-05T14:10:48.030Z,101041.31
2022-10-05T14:13:47.603Z,101036.25
2022-10-05T14:16:26.287Z,101026.63
2022-10-05T14:19:05.098Z,101017.78
2022-10-05T14:21:49.669Z,101020.09
2022-10-05T14:25:02.062Z,101018.88
2022-10-05T14:27:36.506Z,101013.66
2022-10-05T14:30:24.596Z,101015.00
2022-10-05T14:32:56.348Z,101002.69
2022-10-05T14:35:34.158Z,101000.19
2022-10-05T14:38:21.392Z,100996.91
2022-10-05T14:41:17.020Z,100991.28
2022-10-05T14:44:26.678Z,100993.34
2022-10-05T14:47:16.790Z,100991.41
2022-10-05T14:50:16.930Z,100973.81
2022-10-05T14:53:03.125Z,100983.75
2022-10-05T14:56:17.443Z,100981.28
2022-10-05T14:59:08.428Z,100978.06
2022-10-05T15:02:08.137Z,100981.78
2022-10-05T15:04:44.812Z,100975.94
2022-10-05T15:07:26.667Z,100982.13
2022-10-05T15:10:42.104Z,100976.47
2022-10-05T15:13:32.958Z,100973.44
2022-10-05T15:16:34.100Z,100970.75
2022-10-05T15:19:40.878Z,100981.44
2022-10-05T15:22:31.864Z,100983.31
2022-10-05T15:25:40.440Z,100978.81
2022-10-05T15:28:48.461Z,100980.28
2022-10-05T15:31:37.731Z,100973.94
2022-10-05T15:34:37.477Z,100970.44
2022-10-05T15:37:43.146Z,100971.72
2022-10-05T15:40:47.190Z,100976.22
2022-10-05T15:43:23.326Z,100963.69
2022-10-05T15:46:18.401Z,100973.22
2022-10-05T15:49:10.466Z,100973.47
2022-10-05T15:52:08.837Z,100963.78
2022-10-05T15:55:17.292Z,100973.16
2022-10-05T15:58:07.898Z,100973.66
2022-10-05T16:00:50.423Z,100975.22
2022-10-05T16:03:54.115Z,100982.06
2022-10-05T16:06:57.610Z,100972.16
2022-10-05T16:10:16.114Z,100974.19
2022-10-05T16:13:25.787Z,100974.13
2022-10-05T16:16:32.801Z,100969.59
2022-10-05T16:19:28.547Z,100969.84
2022-10-05T16:22:32.970Z,100971.72
2022-10-05T16:25:19.087Z,100970.75
2022-10-05T16:28:33.082Z,100965.84
2022-10-05T16:31:06.949Z,100965.00
2022-10-05T16:34:19.729Z,100964.25
2022-10-05T16:37:33.386Z,100960.50
2022-10-05T16:40:39.371Z,100952.19
2022-10-05T16:43:31.757Z,100950.19
2022-10-05T16:46:42.850Z,100951.91
2022-10-05T16:49:36.954Z,100945.59
2022-10-05T16:52:08.503Z,100950.88
2022-10-05T16:54:53.872Z,100945.72
2022-10-05T16:57:56.922Z,100946.44
2022-10-05T17:01:24.807Z,100950.81
2022-10-05T17:04:54.349Z,100961.53
2022-10-05T17:08:15.161Z,100963.75
2022-10-05T17:11:23.915Z,100968.91
2022-10-05T17:14:28.151Z,100959.75
2022-10-05T17:17:31.904Z,100969.00
2022-10-05T17:20:40.243Z,100969.00
2022-10-05T17:23:54.743Z,100965.94
2022-10-05T17:26:59.327Z,100965.28
2022-10-05T17:30:27.183Z,100961.91
2022-10-05T17:33:29.806Z,100967.81
2022-10-05T17:36:08.577Z,100966.19
2022-10-05T17:38:35.393Z,100962.44
2022-10-05T17:41:31.125Z,100969.00
2022-10-05T17:44:07.139Z,100972.59
2022-10-05T17:46:46.008Z,100973.91
2022-10-05T17:50:19.508Z,100976.88
2022-10-05T17:54:02.810Z,100977.38
2022-10-05T17:56:57.126Z,100966.75
2022-10-05T17:59:55.618Z,100971.34
2022-10-05T18:02:40.159Z,100972.81
2022-10-05T18:05:30.208Z,100970.50
2022-10-05T18:08:12.856Z,100965.44
2022-10-05T18:11:09.097Z,100959.75
2022-10-05T18:13:46.361Z,100966.28
2022-10-05T18:17:01.624Z,100956.28
2022-10-05T18:19:33.331Z,100953.53
2022-10-05T18:22:17.869Z,100961.84
2022-10-05T18:25:19.500Z,100955.00
2022-10-05T18:28:30.754Z,100961.06
2022-10-05T18:31:40.474Z,100967.56
2022-10-05T18:34:39.370Z,100971.34
2022-10-05T18:38:02.047Z,100971.19
2022-10-05T18:40:52.964Z,100965.47
2022-10-05T18:43:45.717Z,100957.44
2022-10-05T18:46:45.770Z,100953.19
2022-10-05T18:50:25.151Z,100965.28
2022-10-05T18:53:04.081Z,100965.53
2022-10-05T18:55:48.929Z,100964.25
2022-10-05T18:58:35.267Z,100963.41
2022-10-05T19:02:28.747Z,100958.66
2022-10-05T19:05:53.687Z,100966.06
2022-10-05T19:08:39.228Z,100960.63
2022-10-05T19:11:52.779Z,100958.19
2022-10-05T19:15:04.832Z,100963.03
2022-10-05T19:19:00.155Z,100962.34
2022-10-05T19:21:59.776Z,100965.03
2022-10-05T19:25:14.450Z,100970.25
2022-10-05T19:28:44.198Z,100973.13
2022-10-05T19:31:52.705Z,100988.03
2022-10-05T19:34:45.704Z,100986.59
2022-10-05T19:37:45.298Z,100989.41
2022-10-05T19:40:39.267Z,101001.25
2022-10-05T19:43:50.632Z,101005.22
2022-10-05T19:46:31.921Z,101017.59
2022-10-05T19:49:00.272Z,101013.16
2022-10-05T19:51:37.131Z,101013.69
2022-10-05T19:54:31.571Z,101020.88
2022-10-05T19:57:02.905Z,101017.88
2022-10-05T19:59:34.333Z,101010.38
2022-10-05T20:02:02.519Z,101016.78
2022-10-05T20:04:54.944Z,101020.16
2022-10-05T20:07:23.003Z,101025.41
2022-10-05T20:10:14.383Z,101028.38
2022-10-05T20:12:56.016Z,101038.88
2022-10-05T20:15:48.434Z,101031.84
2022-10-05T20:18:56.517Z,101032.88
2022-10-05T20:21:49.425Z,101048.59
2022-10-05T20:24:25.690Z,101056.66
2022-10-05T20:27:05.557Z,101049.13
2022-10-05T20:29:36.836Z,101061.75
2022-10-05T20:32:14.321Z,101059.13
2022-10-05T20:34:46.459Z,101063.22
2022-10-05T20:37:20.094Z,101066.97
2022-10-05T20:39:51.506Z,101072.19
2022-10-05T20:42:23.346Z,101076.59
2022-10-05T20:44:55.827Z,101082.81
2022-10-05T20:47:25.643Z,101078.56
2022-10-05T20:49:55.622Z,101094.00
2022-10-05T20:52:23.546Z,101089.06
2022-10-05T20:54:56.724Z,101097.91
2022-10-05T20:57:24.360Z,101097.59
2022-10-05T20:59:52.206Z,101098.41
2022-10-05T21:02:19.656Z,101104.63
2022-10-05T21:04:47.790Z,101105.47
2022-10-05T21:07:21.175Z,101108.06
2022-10-05T21:09:48.223Z,101106.91
2022-10-05T21:12:16.884Z,101112.84
2022-10-05T21:14:44.165Z,101112.47
2022-10-05T21:17:12.053Z,101109.38
2022-10-05T21:19:40.479Z,101110.53
2022-10-05T21:22:10.443Z,101115.44
2022-10-05T21:24:40.926Z,101113.13
2022-10-05T21:27:08.711Z,101119.00
2022-10-05T21:29:37.111Z,101118.66
2022-10-05T21:32:08.733Z,101113.84
2022-10-05T21:34:35.825Z,101114.44
2022-10-05T21:37:02.934Z,101117.72
2022-10-05T21:39:29.854Z,101129.19
2022-10-05T21:41:56.904Z,101130.25
2022-10-05T21:44:23.910Z,101126.44
2022-10-05T21:46:52.198Z,101125.31
2022-10-05T21:49:20.259Z,101136.66
2022-10-05T21:51:48.747Z,101137.63
2022-10-05T21:54:22.747Z,101145.19
2022-10-05T21:56:57.309Z,101129.66
2022-10-05T21:59:33.237Z,101131.28
2022-10-05T22:02:00.869Z,101138.50
2022-10-05T22:04:28.136Z,101129.63
2022-10-05T22:12:50.217Z,101136.69
2022-10-05T22:15:17.330Z,101131.13
2022-10-05T22:17:46.164Z,101141.22
2022-10-05T22:20:15.525Z,101135.00
2022-10-05T22:22:42.520Z,101138.81
2022-10-05T22:25:09.641Z,101139.13
2022-10-05T22:27:37.289Z,101139.00
2022-10-05T22:30:06.318Z,101140.34
2022-10-05T22:32:33.304Z,101143.09
2022-10-05T22:35:00.321Z,101150.69
2022-10-05T22:37:27.553Z,101151.81
2022-10-05T22:39:55.346Z,101155.09
2022-10-05T22:42:23.046Z,101150.53
2022-10-05T22:44:49.974Z,101156.63
2022-10-05T22:47:17.162Z,101159.91
2022-10-05T22:49:44.116Z,101160.91
2022-10-05T22:52:11.173Z,101158.13
2022-10-05T22:54:38.369Z,101154.06
2022-10-05T22:57:05.401Z,101157.53
2022-10-05T22:59:32.458Z,101164.44
2022-10-05T23:01:59.541Z,101150.81
2022-10-05T23:04:26.613Z,101153.94
2022-10-05T23:06:53.584Z,101162.44
2022-10-05T23:09:20.656Z,101160.66
2022-10-05T23:11:52.102Z,101170.66
2022-10-05T23:14:19.664Z,101165.44
2022-10-05T23:16:47.707Z,101170.16
2022-10-05T23:19:14.669Z,101177.41
2022-10-05T23:21:42.410Z,101175.94
2022-10-05T23:24:09.383Z,101176.44
2022-10-05T23:26:36.379Z,101180.53
2022-10-05T23:29:03.561Z,101168.75
2022-10-05T23:31:32.149Z,101177.41
2022-10-05T23:33:59.645Z,101173.78
2022-10-05T23:36:33.240Z,101183.31
2022-10-05T23:39:00.629Z,101187.56
2022-10-05T23:41:27.667Z,101191.31
2022-10-05T23:43:55.303Z,101186.44
2022-10-05T23:46:23.190Z,101192.66
2022-10-05T23:48:50.471Z,101191.97
2022-10-05T23:51:17.814Z,101193.44
2022-10-05T23:53:45.372Z,101195.25
2022-10-05T23:56:13.048Z,101198.53
2022-10-05T23:58:41.108Z,101200.66
